Time;durP1;ratioP1;P1;durP2;ratioP2;P2;SDS_P1;SDS_P2;PMS_P1;PMS_P2;Temp;Humidity;BMP_temperature;BMP_pressure;BME280_temperature;BME280_humidity;BME280_pressure;Samples;Min_cycle;Max_cycle;Signal;HPM_P1;HPM_P2
2023/08/24 00:00:19;;;;;;;2.05;1.60;;;;;;;22.93;100.00;99985.94;4853024;29;20050;-90
2023/08/24 00:02:45;;;;;;;1.10;1.00;;;;;;;22.84;100.00;99972.13;4871106;29;20061;-91
2023/08/24 00:05:10;;;;;;;2.80;1.83;;;;;;;22.85;100.00;99979.31;4840727;29;20321;-92
2023/08/24 00:07:36;;;;;;;1.00;0.90;;;;;;;22.83;100.00;99962.09;4825269;29;20120;-91
2023/08/24 00:10:03;;;;;;;0.95;0.88;;;;;;;22.89;100.00;99974.13;4854785;29;20420;-91
2023/08/24 00:12:29;;;;;;;1.27;1.17;;;;;;;22.85;100.00;99972.91;4840903;29;20042;-92
2023/08/24 00:14:55;;;;;;;0.95;0.95;;;;;;;22.88;100.00;99988.81;4830622;29;20125;-92
2023/08/24 00:17:22;;;;;;;1.77;1.40;;;;;;;22.76;100.00;99976.81;4824908;29;20445;-91
2023/08/24 00:19:48;;;;;;;1.38;1.15;;;;;;;22.72;100.00;99999.72;4840280;29;20105;-92
2023/08/24 00:22:14;;;;;;;1.90;0.90;;;;;;;22.69;100.00;99992.25;4840213;29;20135;-92
2023/08/24 00:24:39;;;;;;;1.23;0.95;;;;;;;22.63;100.00;99991.50;4854657;29;20052;-92
2023/08/24 00:27:05;;;;;;;1.00;1.00;;;;;;;22.57;100.00;99975.84;4825044;29;20053;-90
2023/08/24 00:29:30;;;;;;;0.38;0.38;;;;;;;22.64;100.00;99997.94;4837862;29;20533;-92
2023/08/24 00:31:57;;;;;;;2.22;1.98;;;;;;;22.62;100.00;99998.44;4851223;29;20037;-91
2023/08/24 00:34:23;;;;;;;1.52;1.23;;;;;;;22.57;100.00;99992.78;4839650;29;20415;-91
2023/08/24 00:36:48;;;;;;;4.93;1.75;;;;;;;22.38;100.00;99989.81;4838753;29;20056;-90
2023/08/24 00:39:22;;;;;;;1.83;1.05;;;;;;;22.26;100.00;99989.09;4853881;29;20132;-91
2023/08/24 00:41:48;;;;;;;1.63;1.13;;;;;;;22.27;100.00;100004.75;4823769;29;20053;-91
2023/08/24 00:44:14;;;;;;;2.35;1.58;;;;;;;22.17;100.00;99994.25;4854743;29;20060;-91
2023/08/24 00:46:39;;;;;;;0.73;0.73;;;;;;;22.22;100.00;100008.34;4839542;29;20571;-91
2023/08/24 00:49:05;;;;;;;1.27;1.17;;;;;;;22.20;100.00;99993.22;4836809;29;20525;-92
2023/08/24 00:51:32;;;;;;;1.48;1.38;;;;;;;22.26;100.00;100005.25;4854654;29;20045;-91
2023/08/24 00:53:57;;;;;;;1.02;0.90;;;;;;;22.27;100.00;100004.75;4838949;29;20121;-91
2023/08/24 00:56:24;;;;;;;3.90;1.70;;;;;;;22.22;100.00;99988.59;4856825;29;20408;-91
2023/08/24 00:58:50;;;;;;;1.08;0.98;;;;;;;22.23;100.00;99990.13;4853740;29;20510;-91
2023/08/24 01:03:51;;;;;;;1.13;1.02;;;;;;;22.24;100.00;100011.41;3601162;23;20054;-91
2023/08/24 01:06:17;;;;;;;0.82;0.82;;;;;;;22.19;100.00;100015.06;4798616;29;20083;-94
2023/08/24 01:08:44;;;;;;;0.63;0.63;;;;;;;22.11;100.00;100014.03;4812030;29;20038;-91
2023/08/24 01:11:10;;;;;;;1.33;1.00;;;;;;;22.14;100.00;100012.22;4784626;29;20538;-92
2023/08/24 01:13:50;;;;;;;2.03;1.83;;;;;;;22.06;100.00;100000.69;4813010;29;20042;-92
2023/08/24 01:16:26;;;;;;;1.55;0.98;;;;;;;22.04;100.00;100002.50;4767600;29;20054;-91
2023/08/24 01:18:54;;;;;;;1.08;0.98;;;;;;;22.13;100.00;100011.47;4769834;29;20042;-93
2023/08/24 01:21:21;;;;;;;0.88;0.88;;;;;;;22.15;100.00;100008.91;4778802;29;20162;-91
2023/08/24 01:24:23;;;;;;;2.22;1.75;;;;;;;21.94;100.00;99993.53;4788067;29;20045;-92
2023/08/24 01:26:49;;;;;;;1.35;1.00;;;;;;;21.90;100.00;100003.53;4793601;29;20061;-93
2023/08/24 01:29:15;;;;;;;1.80;1.02;;;;;;;21.80;100.00;100000.19;4803397;29;20034;-91
2023/08/24 01:31:41;;;;;;;3.38;1.40;;;;;;;21.76;100.00;99991.22;4800177;29;20055;-93
2023/08/24 01:34:06;;;;;;;1.05;0.73;;;;;;;21.84;100.00;99995.03;4771416;29;20098;-92
2023/08/24 01:36:32;;;;;;;1.02;0.95;;;;;;;21.92;100.00;99992.53;4795488;29;20055;-91
2023/08/24 01:39:15;;;;;;;0.68;0.65;;;;;;;22.00;100.00;100013.31;4780274;29;20051;-92
2023/08/24 01:41:42;;;;;;;2.93;1.20;;;;;;;21.90;100.00;100012.75;4785638;29;20038;-92
2023/08/24 01:44:09;;;;;;;1.67;1.42;;;;;;;21.51;100.00;99986.63;4773945;29;20414;-92
2023/08/24 01:46:36;;;;;;;2.13;1.95;;;;;;;21.71;100.00;100025.88;4786760;29;20074;-93
2023/08/24 01:49:03;;;;;;;1.92;1.75;;;;;;;21.68;100.00;100002.25;4768920;29;20046;-92
2023/08/24 01:51:29;;;;;;;1.15;1.05;;;;;;;21.68;100.00;100019.19;4777629;29;20042;-91
2023/08/24 01:53:55;;;;;;;2.17;1.35;;;;;;;21.39;100.00;99983.06;4806587;29;20058;-91
2023/08/24 01:56:21;;;;;;;0.77;0.77;;;;;;;21.53;100.00;100001.00;4806902;29;20042;-93
2023/08/24 01:58:46;;;;;;;1.20;1.02;;;;;;;21.66;100.00;100015.34;4791744;29;20526;-91
2023/08/24 02:01:12;;;;;;;1.70;0.95;;;;;;;21.69;100.00;100015.09;4789390;29;20053;-93
2023/08/24 02:03:41;;;;;;;1.15;1.15;;;;;;;21.55;100.00;99989.97;4780390;29;20054;-91
2023/08/24 02:06:07;;;;;;;1.05;0.95;;;;;;;21.68;100.00;100015.59;4787797;29;20579;-91
2023/08/24 02:08:33;;;;;;;1.33;1.27;;;;;;;21.63;100.00;99991.00;4804126;29;20141;-92
2023/08/24 02:10:59;;;;;;;1.00;0.80;;;;;;;21.67;100.00;100011.25;4794403;29;20728;-93
2023/08/24 02:13:24;;;;;;;1.58;1.48;;;;;;;21.60;100.00;100006.88;4782670;29;20495;-91
2023/08/24 02:15:50;;;;;;;1.02;1.00;;;;;;;21.60;100.00;100009.69;4771514;29;20046;-91
2023/08/24 02:18:16;;;;;;;2.17;1.75;;;;;;;21.49;100.00;99998.44;4800254;29;20074;-93
2023/08/24 02:20:41;;;;;;;2.42;1.67;;;;;;;21.51;100.00;100007.16;4791630;29;20058;-93
2023/08/24 02:23:07;;;;;;;2.35;2.15;;;;;;;21.53;100.00;100007.41;4793972;29;20443;-92
2023/08/24 02:25:33;;;;;;;0.40;0.40;;;;;;;21.42;100.00;99989.72;4806657;29;20228;-92
2023/08/24 02:27:59;;;;;;;0.82;0.82;;;;;;;21.63;100.00;100002.28;4790431;29;20553;-92
2023/08/24 02:30:24;;;;;;;1.77;1.42;;;;;;;21.68;100.00;99998.66;4802886;29;20043;-93
2023/08/24 02:32:50;;;;;;;5.65;2.13;;;;;;;21.69;100.00;99988.91;4804101;29;20042;-93
2023/08/24 02:35:16;;;;;;;1.75;1.17;;;;;;;21.69;100.00;99978.41;4805843;29;20146;-92
2023/08/24 02:37:41;;;;;;;0.63;0.50;;;;;;;21.75;100.00;99975.56;4786803;29;20125;-93
2023/08/24 02:40:09;;;;;;;1.27;1.25;;;;;;;21.81;100.00;99991.22;4804269;29;20042;-92
2023/08/24 02:42:35;;;;;;;0.82;0.75;;;;;;;21.82;100.00;99992.75;4805395;29;20107;-92
2023/08/24 02:45:01;;;;;;;1.35;1.20;;;;;;;21.78;100.00;99985.84;4789594;29;20042;-93
2023/08/24 02:47:26;;;;;;;2.47;1.77;;;;;;;21.88;100.00;99997.63;4788765;29;20054;-92
2023/08/24 02:49:52;;;;;;;1.38;1.27;;;;;;;21.80;100.00;99981.19;4804308;29;20388;-92
2023/08/24 02:52:17;;;;;;;0.38;0.38;;;;;;;21.62;100.00;99966.88;4821894;29;20058;-91
2023/08/24 02:54:43;;;;;;;1.50;0.80;;;;;;;21.77;100.00;99981.47;4805566;29;20042;-92
2023/08/24 02:57:08;;;;;;;1.80;1.70;;;;;;;21.74;100.00;99990.97;4788391;29;20046;-91
2023/08/24 02:59:34;;;;;;;1.58;1.27;;;;;;;21.64;100.00;99981.22;4812302;29;20047;-93
2023/08/24 03:01:59;;;;;;;0.68;0.68;;;;;;;21.64;100.00;99987.63;4809443;29;20237;-92
2023/08/24 03:04:25;;;;;;;0.82;0.75;;;;;;;21.59;100.00;99985.59;4788479;29;20038;-92
2023/08/24 03:06:51;;;;;;;0.55;0.50;;;;;;;21.59;100.00;99985.59;4800845;29;20051;-92
2023/08/24 03:09:18;;;;;;;2.78;2.00;;;;;;;21.54;100.00;99977.91;4788267;29;20042;-93
2023/08/24 03:11:44;;;;;;;5.05;1.25;;;;;;;21.58;100.00;99983.28;4805041;29;20038;-91
2023/08/24 03:14:10;;;;;;;1.98;1.77;;;;;;;21.51;100.00;99967.66;4800825;29;20075;-92
2023/08/24 03:16:39;;;;;;;1.98;1.83;;;;;;;21.58;100.00;99981.25;4799572;29;20096;-92
2023/08/24 03:19:04;;;;;;;2.38;0.93;;;;;;;21.59;100.00;99979.97;4804718;29;20042;-92
2023/08/24 03:21:30;;;;;;;1.58;1.48;;;;;;;21.64;100.00;99984.03;4804199;29;20096;-93
2023/08/24 03:23:56;;;;;;;0.77;0.75;;;;;;;21.53;100.00;99987.66;4790256;29;20038;-93
2023/08/24 03:26:23;;;;;;;2.10;1.60;;;;;;;21.49;100.00;99992.00;4787190;29;20054;-92
2023/08/24 03:28:49;;;;;;;0.82;0.70;;;;;;;21.36;100.00;100001.75;4797101;29;20095;-91
2023/08/24 03:31:14;;;;;;;1.80;1.70;;;;;;;21.27;100.00;99985.06;4804746;29;20038;-91
2023/08/24 03:33:41;;;;;;;2.88;1.67;;;;;;;21.08;100.00;99969.91;4788428;29;20380;-93
2023/08/24 03:36:06;;;;;;;0.75;0.60;;;;;;;21.23;100.00;100000.75;4783636;29;20037;-92
2023/08/24 03:38:32;;;;;;;1.15;1.05;;;;;;;21.18;100.00;99990.22;4782634;29;20055;-92
2023/08/24 03:41:05;;;;;;;0.70;0.70;;;;;;;21.07;100.00;99976.81;4786957;29;20405;-92
2023/08/24 03:43:35;;;;;;;2.03;1.45;;;;;;;21.11;100.00;99973.78;4803857;29;20046;-91
2023/08/24 03:46:01;;;;;;;1.38;0.90;;;;;;;21.13;100.00;99982.50;4790015;29;20046;-92
2023/08/24 03:48:27;;;;;;;1.55;1.20;;;;;;;21.17;100.00;99995.09;4799506;29;20133;-91
2023/08/24 03:50:57;;;;;;;1.17;1.05;;;;;;;21.16;100.00;99993.53;4803126;29;20047;-93
2023/08/24 03:53:23;;;;;;;1.02;0.95;;;;;;;21.14;100.00;100001.75;4794270;29;20051;-92
2023/08/24 03:55:50;;;;;;;0.88;0.82;;;;;;;21.06;100.00;99994.28;4802565;29;20046;-93
2023/08/24 03:58:17;;;;;;;1.38;1.27;;;;;;;21.06;100.00;99997.09;4776113;29;20410;-92
2023/08/24 04:00:44;;;;;;;1.02;0.63;;;;;;;21.08;100.00;100008.63;4802546;29;20104;-92
2023/08/24 04:03:10;;;;;;;2.25;1.60;;;;;;;20.99;100.00;100006.06;4801818;29;20522;-92
2023/08/24 04:05:35;;;;;;;0.98;0.88;;;;;;;20.95;100.00;100000.63;4802921;29;20064;-93
2023/08/24 04:08:02;;;;;;;1.65;1.55;;;;;;;20.93;100.00;100006.03;4795365;29;20137;-93
2023/08/24 04:10:29;;;;;;;1.90;1.67;;;;;;;20.66;100.00;99970.88;4785981;29;20035;-91
2023/08/24 04:12:57;;;;;;;0.52;0.52;;;;;;;20.88;100.00;100001.16;4797162;29;20125;-92
2023/08/24 04:15:22;;;;;;;0.50;0.50;;;;;;;20.88;100.00;100006.78;4786419;29;20387;-92
2023/08/24 04:17:49;;;;;;;2.03;1.52;;;;;;;20.99;100.00;100006.81;4787779;29;20035;-92
2023/08/24 04:20:15;;;;;;;1.17;1.02;;;;;;;21.04;100.00;100008.88;4813206;29;20097;-92
2023/08/24 04:22:42;;;;;;;5.53;1.98;;;;;;;21.05;100.00;100015.28;4771358;29;20054;-91
2023/08/24 04:25:08;;;;;;;1.23;0.80;;;;;;;21.09;100.00;100016.56;4788962;29;20272;-90
2023/08/24 04:27:33;;;;;;;1.70;0.80;;;;;;;21.09;100.00;100002.47;4777093;29;20483;-90
2023/08/24 04:30:00;;;;;;;3.25;1.55;;;;;;;21.09;100.00;99999.66;4802608;29;20058;-90
2023/08/24 04:32:27;;;;;;;1.15;1.08;;;;;;;21.13;100.00;100005.84;4800286;29;20458;-91
2023/08/24 04:34:52;;;;;;;1.90;1.35;;;;;;;21.04;100.00;99991.19;4776982;29;20495;-91
2023/08/24 04:37:18;;;;;;;1.45;1.30;;;;;;;21.06;100.00;100003.50;4786053;29;20054;-92
2023/08/24 04:39:44;;;;;;;1.48;1.35;;;;;;;21.02;100.00;99993.75;4800691;29;20061;-94
2023/08/24 04:42:09;;;;;;;1.65;1.05;;;;;;;21.05;100.00;99996.31;4786787;29;20042;-94
2023/08/24 04:44:35;;;;;;;1.55;1.05;;;;;;;21.04;100.00;99988.34;4787174;29;20512;-94
2023/08/24 04:47:00;;;;;;;4.20;2.25;;;;;;;20.95;100.00;99983.72;4803568;29;20038;-94
2023/08/24 04:49:26;;;;;;;2.10;1.77;;;;;;;21.24;100.00;100017.13;4773530;29;20530;-94
2023/08/24 04:51:51;;;;;;;1.08;1.02;;;;;;;21.18;100.00;100007.13;4784852;29;20043;-96
2023/08/24 04:54:17;;;;;;;3.90;2.42;;;;;;;21.35;100.00;100022.78;4773488;29;20042;-95
2023/08/24 04:56:42;;;;;;;1.58;1.42;;;;;;;21.29;100.00;100013.56;4789254;29;20080;-93
2023/08/24 04:59:08;;;;;;;2.78;2.58;;;;;;;21.50;100.00;100024.59;4789864;29;20517;-96
2023/08/24 05:01:34;;;;;;;3.42;2.30;;;;;;;21.50;100.00;100007.66;4799408;29;20503;-94
2023/08/24 05:04:00;;;;;;;2.20;1.48;;;;;;;21.42;100.00;99992.53;4789734;29;20510;-94
2023/08/24 05:06:26;;;;;;;2.17;0.93;;;;;;;21.76;100.00;100030.72;4790147;29;20054;-94
2023/08/24 05:08:52;;;;;;;1.02;0.55;;;;;;;21.83;100.00;100021.78;4788024;29;20042;-95
2023/08/24 05:11:19;;;;;;;1.50;1.40;;;;;;;22.06;100.00;100048.72;4796447;29;20148;-96
2023/08/24 05:13:45;;;;;;;2.25;1.83;;;;;;;22.07;100.00;100029.72;4802336;29;20133;-94
2023/08/24 05:16:12;;;;;;;1.88;1.75;;;;;;;22.28;100.00;100042.25;4804030;29;20130;-95
2023/08/24 05:18:37;;;;;;;1.73;1.38;;;;;;;22.37;100.00;100035.53;4785609;29;20077;-95
2023/08/24 05:21:03;;;;;;;1.52;1.00;;;;;;;22.46;100.00;100032.41;4788853;29;20481;-94
2023/08/24 05:23:30;;;;;;;0.80;0.80;;;;;;;22.58;100.00;100048.06;4795381;29;20438;-94
2023/08/24 05:25:59;;;;;;;0.77;0.77;;;;;;;22.64;100.00;100054.47;4800416;29;20081;-94
2023/08/24 05:28:26;;;;;;;1.65;1.33;;;;;;;22.69;100.00;100050.84;4787173;29;20070;-95
2023/08/24 05:30:52;;;;;;;1.42;1.30;;;;;;;22.64;100.00;100049.59;4786413;29;20499;-94
2023/08/24 05:33:19;;;;;;;1.27;0.90;;;;;;;22.69;100.00;100033.91;4787539;29;20095;-96
2023/08/24 05:35:44;;;;;;;2.40;1.77;;;;;;;22.85;100.00;100041.53;4791851;29;20113;-95
2023/08/24 05:38:10;;;;;;;1.42;1.33;;;;;;;22.94;100.00;100038.41;4806753;29;20204;-94
2023/08/24 05:40:37;;;;;;;4.03;1.60;;;;;;;22.87;100.00;100013.50;4824014;24;20058;-90
2023/08/24 05:43:03;;;;;;;1.77;1.10;;;;;;;23.28;100.00;100046.69;4815235;29;20050;-90
2023/08/24 05:45:29;;;;;;;1.58;1.42;;;;;;;23.20;100.00;100013.31;4820368;29;20038;-90
2023/08/24 05:47:54;;;;;;;1.45;1.35;;;;;;;23.38;100.00;100030.91;4787605;29;20420;-90
2023/08/24 05:50:20;;;;;;;1.73;1.63;;;;;;;23.68;100.00;100054.41;4804911;29;20504;-90
2023/08/24 05:52:45;;;;;;;1.80;1.33;;;;;;;23.89;100.00;100054.75;4785580;29;20489;-91
2023/08/24 05:55:11;;;;;;;0.93;0.90;;;;;;;23.98;100.00;100049.47;4831415;29;20408;-90
2023/08/24 05:57:37;;;;;;;3.88;2.30;;;;;;;24.14;100.00;100054.25;4805025;29;20398;-90
2023/08/24 06:00:08;;;;;;;1.38;1.27;;;;;;;24.17;100.00;100037.50;4819290;29;20206;-90
2023/08/24 06:02:39;;;;;;;1.67;1.25;;;;;;;24.41;100.00;100048.81;4803691;29;20054;-91
2023/08/24 06:05:06;;;;;;;1.42;1.33;;;;;;;24.29;100.00;100041.75;4830441;29;20146;-91
2023/08/24 06:07:32;;;;;;;3.33;1.60;;;;;;;24.63;100.00;100057.81;4788628;29;20747;-90
2023/08/24 06:10:00;;;;;;;1.58;1.45;;;;;;;24.80;100.00;100059.69;4815029;29;20473;-91
2023/08/24 06:12:25;;;;;;;1.48;1.25;;;;;;;24.57;100.00;100023.09;4839897;29;20050;-90
2023/08/24 06:14:51;;;;;;;1.20;1.10;;;;;;;24.95;100.00;100055.13;4818752;29;20065;-90
2023/08/24 06:17:20;;;;;;;1.50;1.17;;;;;;;25.05;100.00;100070.47;4790960;29;20042;-92
2023/08/24 06:20:10;;;;;;;1.67;1.00;;;;;;;25.13;100.00;100069.84;4787951;29;20043;-90
2023/08/24 06:22:50;;;;;;;1.67;1.10;;;;;;;25.21;100.00;100051.66;4831710;29;20471;-90
2023/08/24 06:25:41;;;;;;;5.65;2.17;;;;;;;24.92;100.00;100021.38;4806415;29;20133;-89
2023/08/24 06:28:18;;;;;;;1.35;1.25;;;;;;;25.51;100.00;100060.00;4815371;29;20062;-91
2023/08/24 06:30:52;;;;;;;1.95;1.65;;;;;;;25.40;100.00;100029.69;4835116;29;20058;-90
2023/08/24 06:33:20;;;;;;;1.38;1.27;;;;;;;25.33;100.00;100033.16;4792268;29;20054;-91
2023/08/24 06:35:46;;;;;;;4.45;2.08;;;;;;;25.38;100.00;100040.06;4830195;29;20046;-90
2023/08/24 06:38:11;;;;;;;1.65;1.27;;;;;;;25.53;100.00;100057.41;4820664;29;20492;-91
2023/08/24 06:40:37;;;;;;;2.05;1.85;;;;;;;25.95;100.00;100075.56;4820689;29;20054;-92
2023/08/24 06:43:04;;;;;;;2.33;1.77;;;;;;;26.05;100.00;100050.31;4843501;29;20046;-90
2023/08/24 06:45:32;;;;;;;3.30;1.58;;;;;;;25.90;100.00;100023.22;4836302;29;20055;-91
2023/08/24 06:47:57;;;;;;;1.52;1.42;;;;;;;25.96;100.00;100049.44;4819500;29;20058;-92
2023/08/24 06:50:23;;;;;;;1.38;1.20;;;;;;;26.06;100.00;100037.66;4820999;29;20061;-92
2023/08/24 06:52:49;;;;;;;2.38;1.48;;;;;;;26.27;100.00;100052.81;4791294;29;20066;-92
2023/08/24 06:55:15;;;;;;;1.45;1.25;;;;;;;26.45;100.00;100055.53;4834128;29;20043;-91
2023/08/24 06:57:40;;;;;;;3.05;2.15;;;;;;;26.69;100.00;100065.91;4820921;29;20049;-91
2023/08/24 07:00:08;;;;;;;0.98;0.98;;;;;;;26.85;100.00;100064.81;4805394;29;20038;-91
2023/08/24 07:02:40;;;;;;;0.80;0.80;;;;;;;26.96;100.00;100057.38;4816368;29;20496;-91
2023/08/24 07:05:14;;;;;;;1.92;1.20;;;;;;;26.87;100.00;100050.06;4843610;29;20083;-91
2023/08/24 07:08:04;;;;;;;1.17;0.90;;;;;;;26.98;100.00;100071.81;4824657;29;20057;-91
2023/08/24 07:10:35;;;;;;;1.02;1.02;;;;;;;27.01;100.00;100037.34;4805067;29;20509;-91
2023/08/24 07:13:03;;;;;;;1.52;1.42;;;;;;;27.28;100.00;100043.69;4814628;29;20077;-91
2023/08/24 07:15:37;;;;;;;1.85;1.45;;;;;;;27.28;100.00;100032.31;4836397;29;20054;-91
2023/08/24 07:18:06;;;;;;;0.73;0.70;;;;;;;27.42;100.00;100044.44;4812132;29;20158;-92
2023/08/24 07:20:33;;;;;;;2.90;1.45;;;;;;;27.67;100.00;100063.50;4810211;29;20103;-90
2023/08/24 07:22:58;;;;;;;1.75;1.35;;;;;;;28.13;100.00;100075.31;4808121;29;20046;-90
2023/08/24 07:25:24;;;;;;;1.77;1.63;;;;;;;28.04;100.00;100052.97;4820565;29;20421;-91
2023/08/24 07:27:50;;;;;;;2.63;1.25;;;;;;;28.17;100.00;100044.38;4828130;29;20069;-92
2023/08/24 07:30:16;;;;;;;0.77;0.73;;;;;;;28.07;100.00;100046.16;4788106;29;20070;-91
2023/08/24 07:32:41;;;;;;;1.45;1.33;;;;;;;28.23;100.00;100039.25;4824298;29;20536;-90
2023/08/24 07:35:08;;;;;;;1.83;1.65;;;;;;;28.48;100.00;100040.38;4790052;29;20035;-91
2023/08/24 07:37:33;;;;;;;1.85;1.70;;;;;;;28.73;100.00;100084.31;4836181;29;20049;-92
2023/08/24 07:39:59;;;;;;;1.65;1.55;;;;;;;28.55;100.00;100056.78;4818211;29;20388;-91
2023/08/24 07:42:24;;;;;;;2.20;1.80;;;;;;;28.60;100.00;100055.84;4835393;29;20471;-90
2023/08/24 07:44:50;;;;;;;1.80;1.40;;;;;;;28.98;98.85;100084.63;4844098;29;20038;-90
2023/08/24 07:47:16;;;;;;;1.08;1.02;;;;;;;29.12;97.24;100060.31;4841043;29;20124;-91
2023/08/24 07:49:44;;;;;;;1.13;1.10;;;;;;;29.38;98.06;100075.66;4832931;29;20512;-91
2023/08/24 07:52:11;;;;;;;2.65;1.95;;;;;;;29.50;98.59;100040.44;4810789;29;20078;-92
2023/08/24 07:54:36;;;;;;;1.60;1.48;;;;;;;29.65;96.67;100071.88;4817947;29;20050;-90
2023/08/24 07:57:02;;;;;;;2.10;1.45;;;;;;;29.70;96.36;100063.69;4835051;29;20046;-92
2023/08/24 13:04:32;;;;;;;1.35;1.25;;;;;;;36.62;35.93;99870.84;4856974;29;20030;-96
2023/08/24 13:07:09;;;;;;;1.63;1.52;;;;;;;36.83;35.56;99893.88;4833890;29;20128;-96
2023/08/24 13:12:22;;;;;;;1.17;1.07;;;;;;;36.48;36.94;99910.31;4899498;24;20061;-96
2023/08/24 13:14:48;;;;;;;1.33;1.20;;;;;;;36.35;36.38;99905.91;4847003;29;20804;-96
2023/08/24 13:17:16;;;;;;;1.38;1.27;;;;;;;36.38;37.02;99889.44;4844265;29;20261;-95
2023/08/24 13:19:42;;;;;;;1.48;1.10;;;;;;;36.15;36.82;99854.72;4839851;29;20087;-94
2023/08/24 13:22:08;;;;;;;1.58;1.45;;;;;;;36.21;36.54;99860.88;4816052;29;20030;-96
2023/08/24 13:24:34;;;;;;;1.23;1.13;;;;;;;36.25;37.05;99856.13;4845088;29;20049;-96
2023/08/24 13:27:10;;;;;;;1.58;1.25;;;;;;;36.52;36.83;99893.25;4832475;24;20051;-96
2023/08/24 13:44:43;;;;;;;1.98;1.33;;;;;;;36.48;35.98;99885.06;1643388;23;20309;-94
2023/08/24 13:47:09;;;;;;;2.60;1.00;;;;;;;36.43;37.03;99873.91;4800403;29;20051;-95
2023/08/24 13:49:37;;;;;;;5.97;1.95;;;;;;;36.20;36.38;99839.91;4796978;29;20406;-95
2023/08/24 13:52:04;;;;;;;1.02;0.93;;;;;;;36.47;36.17;99853.94;4812981;29;20721;-94
2023/08/24 13:54:30;;;;;;;1.10;0.98;;;;;;;36.06;36.63;99867.81;4780050;29;20043;-90
2023/08/24 13:56:56;;;;;;;1.30;1.20;;;;;;;35.64;37.59;99876.50;4779352;29;20055;-90
2023/08/24 13:59:21;;;;;;;3.30;2.28;;;;;;;35.72;37.29;99848.94;4786607;29;20142;-91
2023/08/24 14:01:47;;;;;;;3.88;1.63;;;;;;;35.91;36.97;99869.00;4792565;29;20506;-91
2023/08/24 14:04:13;;;;;;;1.25;1.15;;;;;;;35.22;37.16;99852.00;4784016;29;20078;-90
2023/08/24 14:06:39;;;;;;;1.10;1.00;;;;;;;35.24;37.84;99855.00;4774091;29;20050;-91
2023/08/24 14:09:05;;;;;;;0.95;0.95;;;;;;;35.33;38.43;99873.63;4800045;29;20432;-91
2023/08/24 14:11:31;;;;;;;1.30;1.25;;;;;;;35.35;37.80;99871.63;4787140;29;20071;-89
2023/08/24 14:13:57;;;;;;;2.53;1.88;;;;;;;35.20;38.33;99854.72;4779191;29;20503;-90
2023/08/24 14:16:23;;;;;;;2.10;1.63;;;;;;;35.06;38.22;99853.72;4775652;29;20078;-89
2023/08/24 14:18:49;;;;;;;0.98;0.98;;;;;;;35.26;37.97;99852.28;4768217;29;20130;-90
2023/08/24 14:21:19;;;;;;;1.30;1.20;;;;;;;35.02;37.68;99830.38;4788688;29;20054;-89
2023/08/24 14:23:44;;;;;;;1.65;1.13;;;;;;;35.29;37.18;99850.28;4785610;30;20418;-90
2023/08/24 14:26:10;;;;;;;1.23;1.20;;;;;;;35.24;38.42;99849.22;4798442;29;20534;-89
2023/08/24 14:28:54;;;;;;;1.15;1.05;;;;;;;35.40;37.33;99841.69;4778532;29;20051;-89
2023/08/24 14:31:27;;;;;;;1.60;1.50;;;;;;;35.48;37.79;99832.84;4801741;29;20753;-89
2023/08/24 14:33:53;;;;;;;1.67;1.58;;;;;;;35.64;37.09;99839.75;4787006;29;20719;-90
2023/08/24 14:36:22;;;;;;;1.13;1.05;;;;;;;35.34;37.79;99829.00;4773055;29;20176;-90
2023/08/24 14:38:49;;;;;;;2.00;1.20;;;;;;;35.31;37.83;99841.75;4760813;30;20046;-90
2023/08/24 14:41:14;;;;;;;1.23;1.13;;;;;;;35.18;37.69;99801.94;4787338;29;20102;-89
2023/08/24 14:43:40;;;;;;;1.17;1.10;;;;;;;35.32;37.95;99823.09;4770268;30;20047;-90
2023/08/24 14:46:06;;;;;;;2.92;2.10;;;;;;;35.24;37.48;99837.69;4779917;30;20083;-89
2023/08/24 14:48:32;;;;;;;2.05;1.63;;;;;;;35.18;38.58;99836.53;4768784;30;20102;-90
2023/08/24 14:50:58;;;;;;;1.25;1.15;;;;;;;34.96;38.88;99795.34;4751937;30;20054;-90
2023/08/24 14:53:25;;;;;;;2.15;1.30;;;;;;;35.27;39.18;99824.94;4769646;30;20051;-89
2023/08/24 14:55:50;;;;;;;3.65;1.60;;;;;;;34.85;39.20;99796.00;4769933;30;20108;-90
2023/08/24 14:58:17;;;;;;;1.42;1.00;;;;;;;35.01;38.77;99815.19;4769642;30;20444;-89
2023/08/24 15:00:42;;;;;;;1.10;0.80;;;;;;;34.83;39.03;99810.25;4768622;30;20054;-90
2023/08/24 15:03:08;;;;;;;3.65;1.08;;;;;;;34.73;39.08;99801.69;4753645;30;20055;-90
2023/08/24 15:05:40;;;;;;;1.00;0.90;;;;;;;34.66;39.13;99796.09;4776403;30;20051;-90
2023/08/24 15:08:06;;;;;;;1.27;1.17;;;;;;;34.46;39.98;99801.13;4752825;30;20061;-90
2023/08/24 15:10:32;;;;;;;1.90;1.40;;;;;;;34.51;39.90;99802.94;4778294;29;20421;-89
2023/08/24 15:12:57;;;;;;;3.05;1.98;;;;;;;34.28;40.11;99814.22;4769193;30;20051;-89
2023/08/24 15:15:23;;;;;;;1.98;1.60;;;;;;;34.05;41.27;99794.53;4754592;30;20093;-90
2023/08/24 15:17:48;;;;;;;1.15;0.88;;;;;;;34.00;41.31;99807.88;4739295;30;20104;-89
2023/08/24 15:20:14;;;;;;;1.40;1.17;;;;;;;33.74;40.90;99785.75;4760275;29;20047;-90
2023/08/24 15:22:40;;;;;;;1.90;1.10;;;;;;;33.91;41.46;99804.97;4784712;29;20051;-92
2023/08/24 15:25:06;;;;;;;1.58;1.38;;;;;;;33.96;40.08;99824.81;4759403;30;20062;-92
2023/08/24 15:27:32;;;;;;;1.85;1.38;;;;;;;33.82;40.93;99815.13;4751554;30;20132;-92
2023/08/24 15:29:57;;;;;;;1.00;1.00;;;;;;;33.65;41.33;99792.25;4761747;30;20038;-91
2023/08/24 15:32:23;;;;;;;1.33;1.23;;;;;;;34.14;41.53;99817.53;4751010;30;20502;-91
2023/08/24 15:34:49;;;;;;;1.23;1.20;;;;;;;34.24;40.97;99819.66;4775554;30;20079;-91
2023/08/24 15:37:15;;;;;;;1.23;1.10;;;;;;;34.16;40.64;99811.97;4764409;30;20123;-92
2023/08/24 15:39:40;;;;;;;0.88;0.88;;;;;;;34.08;41.01;99817.09;4754192;30;20060;-91
2023/08/24 15:42:06;;;;;;;3.08;1.20;;;;;;;34.02;41.27;99792.84;4750357;30;20035;-92
2023/08/24 15:44:33;;;;;;;1.83;1.35;;;;;;;33.97;41.81;99780.28;4750738;30;20101;-91
2023/08/24 15:46:59;;;;;;;1.13;1.05;;;;;;;33.98;41.55;99804.81;4752922;30;20459;-91
2023/08/24 15:49:25;;;;;;;1.38;1.27;;;;;;;33.90;42.01;99798.47;4754841;30;20047;-91
2023/08/24 15:51:51;;;;;;;1.23;1.20;;;;;;;34.16;41.75;99791.06;4775195;30;21069;-92
2023/08/24 15:54:17;;;;;;;2.33;1.05;;;;;;;34.28;41.23;99794.06;4769935;30;20128;-92
2023/08/24 15:56:45;;;;;;;0.68;0.68;;;;;;;34.18;41.42;99783.31;4766708;30;20085;-91
2023/08/24 15:59:18;;;;;;;1.77;1.45;;;;;;;34.08;41.19;99773.94;4749981;30;20043;-91
2023/08/24 16:01:44;;;;;;;1.27;1.17;;;;;;;33.90;41.69;99769.69;4752990;30;20074;-91
2023/08/24 16:04:11;;;;;;;1.17;1.05;;;;;;;33.88;41.73;99781.06;4784533;30;20059;-91
2023/08/24 16:06:38;;;;;;;0.95;0.85;;;;;;;33.86;41.90;99786.66;4785092;29;20047;-90
2023/08/24 16:09:04;;;;;;;0.90;0.90;;;;;;;33.44;41.68;99740.34;4759251;29;20044;-90
2023/08/24 16:11:29;;;;;;;2.55;1.17;;;;;;;33.23;42.81;99738.81;4763450;29;20076;-91
2023/08/24 16:13:55;;;;;;;1.45;1.25;;;;;;;33.45;43.25;99770.56;4739758;30;20083;-90
2023/08/24 16:16:20;;;;;;;2.72;1.55;;;;;;;33.18;43.03;99759.97;4767287;30;20096;-91
2023/08/24 16:18:46;;;;;;;1.48;1.38;;;;;;;33.33;43.21;99770.41;4757359;30;20047;-91
2023/08/24 16:21:11;;;;;;;0.85;0.82;;;;;;;33.21;43.77;99770.25;4783194;30;20065;-90
2023/08/24 16:23:37;;;;;;;0.85;0.85;;;;;;;33.20;44.00;99765.84;4758907;30;20040;-91
2023/08/24 16:26:02;;;;;;;1.65;1.48;;;;;;;33.15;43.74;99763.28;4752703;30;20047;-92
2023/08/24 16:28:28;;;;;;;0.75;0.75;;;;;;;33.08;44.55;99767.03;4768018;30;20059;-91
2023/08/24 16:30:54;;;;;;;1.13;1.00;;;;;;;33.07;44.95;99763.41;4752151;29;20039;-91
2023/08/24 16:33:19;;;;;;;1.13;1.02;;;;;;;32.80;44.75;99736.84;4765711;29;20158;-90
2023/08/24 16:35:46;;;;;;;1.60;1.42;;;;;;;32.60;45.06;99706.53;4767630;30;20043;-91
2023/08/24 16:38:11;;;;;;;1.25;1.15;;;;;;;32.52;45.36;99746.09;4768829;30;20102;-91
2023/08/24 16:40:37;;;;;;;1.52;1.25;;;;;;;32.34;46.57;99728.94;4767786;30;20080;-91
2023/08/24 16:43:03;;;;;;;1.23;1.05;;;;;;;32.14;48.04;99717.97;4750421;30;20059;-91
2023/08/24 16:45:28;;;;;;;2.15;1.83;;;;;;;32.08;48.59;99731.81;4758798;30;20541;-90
2023/08/24 16:47:54;;;;;;;1.88;1.67;;;;;;;32.13;49.36;99745.91;4759386;29;20050;-91